Time;durP1;ratioP1;P1;durP2;ratioP2;P2;SDS_P1;SDS_P2;PMS_P1;PMS_P2;Temp;Humidity;BMP_temperature;BMP_pressure;BME280_temperature;BME280_humidity;BME280_pressure;Samples;Min_cycle;Max_cycle;Signal;HPM_P1;HPM_P2
2023/05/27 00:01:24;;;;;;;14.68;3.55;;;;;;;-144.85;100.00;61331.59;5098720;28;32546;-76
2023/05/27 00:03:51;;;;;;;14.60;3.60;;;;;;;-144.85;100.00;61331.59;5099114;28;33112;-77
2023/05/27 00:06:19;;;;;;;11.10;3.30;;;;;;;-144.85;100.00;61331.59;5099162;28;33241;-76
2023/05/27 00:08:46;;;;;;;11.75;3.30;;;;;;;-144.85;100.00;61331.59;5099339;28;31870;-76
2023/05/27 00:11:13;;;;;;;14.55;3.67;;;;;;;-144.85;100.00;61331.59;5080566;28;30238;-76
2023/05/27 00:13:41;;;;;;;14.57;3.30;;;;;;;-144.85;100.00;61331.59;5098653;28;33249;-76
2023/05/27 00:16:08;;;;;;;13.57;3.30;;;;;;;-144.85;100.00;61331.59;5098931;28;31846;-77
2023/05/27 00:18:36;;;;;;;12.93;3.03;;;;;;;-144.85;100.00;61331.59;5097429;28;31787;-76
2023/05/27 00:21:04;;;;;;;13.57;3.70;;;;;;;-144.85;100.00;61331.59;5099050;28;31438;-76
2023/05/27 00:23:31;;;;;;;11.18;3.45;;;;;;;-144.85;100.00;61331.59;5098778;28;32362;-77
2023/05/27 00:25:58;;;;;;;13.20;3.55;;;;;;;-144.85;100.00;61331.59;5098190;28;32833;-76
2023/05/27 00:28:28;;;;;;;12.15;3.55;;;;;;;-144.85;100.00;61331.59;5099469;28;31694;-76
2023/05/27 00:30:56;;;;;;;16.27;3.60;;;;;;;-144.85;100.00;61331.59;5067356;28;31478;-77
2023/05/27 00:33:24;;;;;;;12.32;3.22;;;;;;;-144.85;100.00;61331.59;5080374;28;31861;-76
2023/05/27 00:35:51;;;;;;;14.30;3.08;;;;;;;-144.85;100.00;61331.59;5079532;28;31077;-76
2023/05/27 00:38:18;;;;;;;18.10;4.13;;;;;;;-144.85;100.00;61331.59;5098860;28;31763;-76
2023/05/27 00:40:46;;;;;;;13.60;3.22;;;;;;;-144.85;100.00;61331.59;5073526;28;31353;-76
2023/05/27 00:43:13;;;;;;;16.02;3.55;;;;;;;-144.85;100.00;61331.59;5092748;28;33215;-77
2023/05/27 00:45:41;;;;;;;8.95;3.40;;;;;;;-144.85;100.00;61331.59;5096887;28;31119;-76
2023/05/27 00:48:08;;;;;;;14.20;3.30;;;;;;;-144.85;100.00;61331.59;5080650;28;31530;-76
2023/05/27 00:50:35;;;;;;;13.15;3.67;;;;;;;-144.85;100.00;61331.59;5098620;28;31401;-76
2023/05/27 00:53:03;;;;;;;15.93;3.63;;;;;;;-144.85;100.00;61331.59;5098426;28;33492;-76
2023/05/27 00:55:30;;;;;;;16.60;3.70;;;;;;;-144.85;100.00;61331.59;5082779;28;31226;-77
2023/05/27 00:57:59;;;;;;;10.60;3.20;;;;;;;-144.85;100.00;61331.59;5059874;28;30698;-76
2023/05/27 01:00:27;;;;;;;8.95;3.28;;;;;;;-144.85;100.00;61331.59;5076276;28;30172;-76
2023/05/27 01:02:55;;;;;;;13.30;3.22;;;;;;;-144.85;100.00;61331.59;5080064;28;31758;-76
2023/05/27 01:05:22;;;;;;;12.15;3.20;;;;;;;-144.85;100.00;61331.59;5096900;28;32023;-76
2023/05/27 01:08:21;;;;;;;12.32;3.53;;;;;;;-144.85;100.00;61331.59;5099685;28;32058;-77
2023/05/27 01:10:51;;;;;;;11.60;3.47;;;;;;;-144.85;100.00;61331.59;5060021;28;31716;-76
2023/05/27 01:13:49;;;;;;;13.65;3.30;;;;;;;-144.85;100.00;61331.59;5093117;28;31344;-77
2023/05/27 01:16:18;;;;;;;10.52;3.25;;;;;;;-144.85;100.00;61331.59;5061387;28;31223;-77
2023/05/27 01:18:48;;;;;;;10.00;3.25;;;;;;;-144.85;100.00;61331.59;5077691;28;32078;-77
2023/05/27 01:21:19;;;;;;;14.95;3.80;;;;;;;-144.85;100.00;61331.59;5078720;28;31635;-77
2023/05/27 01:23:50;;;;;;;8.88;2.97;;;;;;;-144.85;100.00;61331.59;5085189;28;31619;-76
2023/05/27 01:26:18;;;;;;;13.07;3.80;;;;;;;-144.85;100.00;61331.59;5082631;28;31993;-76
2023/05/27 01:28:45;;;;;;;13.23;3.45;;;;;;;-144.85;100.00;61331.59;5066877;28;30916;-76
2023/05/27 01:31:21;;;;;;;13.77;3.58;;;;;;;-144.85;100.00;61331.59;5088631;28;30360;-77
2023/05/27 01:34:01;;;;;;;12.07;4.07;;;;;;;-144.85;100.00;61331.59;5069153;28;31509;-76
2023/05/27 01:36:33;;;;;;;15.98;3.70;;;;;;;-144.85;100.00;61331.59;5077599;28;32827;-76
2023/05/27 01:39:02;;;;;;;12.52;3.28;;;;;;;-144.85;100.00;61331.59;5052719;28;33199;-77
2023/05/27 01:41:30;;;;;;;14.32;3.88;;;;;;;-144.85;100.00;61331.59;5079093;28;31641;-77
2023/05/27 01:43:59;;;;;;;15.30;3.25;;;;;;;-144.85;100.00;61331.59;5063720;28;31431;-76
2023/05/27 01:46:26;;;;;;;10.73;3.25;;;;;;;-144.85;100.00;61331.59;5091898;28;31739;-77
2023/05/27 01:48:53;;;;;;;10.57;3.45;;;;;;;-144.85;100.00;61331.59;5080905;28;31481;-77
2023/05/27 01:51:20;;;;;;;10.68;3.47;;;;;;;-144.85;100.00;61331.59;5073921;28;31601;-76
2023/05/27 01:53:47;;;;;;;14.85;4.13;;;;;;;-144.85;100.00;61331.59;5099573;28;32224;-76
2023/05/27 01:56:15;;;;;;;12.90;3.55;;;;;;;-144.85;100.00;61331.59;5102857;28;32186;-76
2023/05/27 01:58:42;;;;;;;13.20;4.13;;;;;;;-144.85;100.00;61331.59;5096487;28;31796;-76
2023/05/27 02:01:10;;;;;;;9.77;3.85;;;;;;;-144.85;100.00;61331.59;5079347;28;30806;-75
2023/05/27 02:03:37;;;;;;;11.38;3.30;;;;;;;-144.85;100.00;61331.59;5078272;28;31452;-76
2023/05/27 02:06:05;;;;;;;16.23;4.28;;;;;;;-144.85;100.00;61331.59;5097324;28;32719;-76
2023/05/27 02:08:33;;;;;;;13.23;4.25;;;;;;;-144.85;100.00;61331.59;5047876;28;30923;-76
2023/05/27 02:11:00;;;;;;;9.35;3.10;;;;;;;-144.85;100.00;61331.59;5067858;28;30550;-76
2023/05/27 02:13:29;;;;;;;14.43;4.00;;;;;;;-144.85;100.00;61331.59;5074841;28;31623;-76
2023/05/27 02:15:57;;;;;;;13.02;3.65;;;;;;;-144.85;100.00;61331.59;5085124;28;32473;-76
2023/05/27 02:18:25;;;;;;;11.50;3.70;;;;;;;-144.85;100.00;61331.59;5076787;28;31656;-76
2023/05/27 02:20:52;;;;;;;10.75;3.40;;;;;;;-144.85;100.00;61331.59;5076724;28;30640;-76
2023/05/27 02:23:19;;;;;;;12.35;3.83;;;;;;;-144.85;100.00;61331.59;5093234;28;32223;-77
2023/05/27 02:25:48;;;;;;;12.68;3.30;;;;;;;-144.85;100.00;61331.59;5095085;28;32097;-76
2023/05/27 02:28:15;;;;;;;13.73;3.63;;;;;;;-144.85;100.00;61331.59;5077943;28;30731;-76
2023/05/27 02:30:45;;;;;;;10.93;3.50;;;;;;;-144.85;100.00;61331.59;5078320;28;30640;-76
2023/05/27 02:33:12;;;;;;;13.02;3.65;;;;;;;-144.85;100.00;61331.59;5071151;28;31940;-76
2023/05/27 02:35:39;;;;;;;9.27;3.30;;;;;;;-144.85;100.00;61331.59;5093465;28;31755;-76
2023/05/27 02:38:06;;;;;;;11.98;3.60;;;;;;;-144.85;100.00;61331.59;5067673;28;30785;-76
2023/05/27 02:40:34;;;;;;;11.85;3.63;;;;;;;-144.85;100.00;61331.59;5075669;28;32040;-76
2023/05/27 02:43:01;;;;;;;15.50;3.70;;;;;;;-144.85;100.00;61331.59;5065998;28;31354;-76
2023/05/27 02:45:28;;;;;;;10.93;3.15;;;;;;;-144.85;100.00;61331.59;5075291;28;32517;-76
2023/05/27 02:47:55;;;;;;;13.93;3.80;;;;;;;-144.85;100.00;61331.59;5074834;28;30877;-76
2023/05/27 02:50:22;;;;;;;11.20;3.53;;;;;;;-144.85;100.00;61331.59;5075423;28;31987;-76
2023/05/27 02:52:50;;;;;;;12.00;3.88;;;;;;;-144.85;100.00;61331.59;5097261;28;32275;-76
2023/05/27 02:55:17;;;;;;;9.35;3.17;;;;;;;-144.85;100.00;61331.59;5095856;28;33403;-76
2023/05/27 02:57:44;;;;;;;12.27;3.65;;;;;;;-144.85;100.00;61331.59;5096481;28;32241;-76
2023/05/27 03:00:13;;;;;;;15.13;4.20;;;;;;;-144.85;100.00;61331.59;5064126;28;30790;-76
2023/05/27 03:02:41;;;;;;;15.23;3.67;;;;;;;-144.85;100.00;61331.59;5079168;28;20052;-76
2023/05/27 03:05:09;;;;;;;11.10;3.78;;;;;;;-144.85;100.00;61331.59;5096192;28;32200;-76
2023/05/27 03:07:36;;;;;;;12.07;3.35;;;;;;;-144.85;100.00;61331.59;5096588;28;31779;-76
2023/05/27 03:10:04;;;;;;;11.75;3.70;;;;;;;-144.85;100.00;61331.59;5078113;28;30731;-76
2023/05/27 03:12:31;;;;;;;13.30;3.55;;;;;;;-144.85;100.00;61331.59;5066981;28;31430;-76
2023/05/27 03:14:59;;;;;;;12.98;3.70;;;;;;;-144.85;100.00;61331.59;5075926;28;31461;-77
2023/05/27 03:17:29;;;;;;;11.75;3.95;;;;;;;-144.85;100.00;61331.59;5042170;28;31065;-77
2023/05/27 03:19:57;;;;;;;10.73;3.63;;;;;;;-144.85;100.00;61331.59;5093646;28;31174;-76
2023/05/27 03:22:24;;;;;;;12.35;3.92;;;;;;;-144.85;100.00;61331.59;5064206;28;32382;-76
2023/05/27 03:24:53;;;;;;;11.98;4.30;;;;;;;-144.85;100.00;61331.59;5096035;28;33063;-75
2023/05/27 03:27:21;;;;;;;11.93;3.65;;;;;;;-144.85;100.00;61331.59;5067752;28;31018;-76
2023/05/27 03:29:49;;;;;;;14.63;4.07;;;;;;;-144.85;100.00;61331.59;5094238;28;31086;-76
2023/05/27 03:32:16;;;;;;;14.30;4.32;;;;;;;-144.85;100.00;61331.59;5078979;28;33206;-76
2023/05/27 03:34:46;;;;;;;12.48;3.50;;;;;;;-144.85;100.00;61331.59;5080599;28;30958;-76
2023/05/27 03:37:14;;;;;;;13.93;3.90;;;;;;;-144.85;100.00;61331.59;5063817;28;31173;-76
2023/05/27 03:39:54;;;;;;;13.65;4.43;;;;;;;-144.85;100.00;61331.59;5080336;28;32125;-76
2023/05/27 03:42:21;;;;;;;16.58;4.07;;;;;;;-144.85;100.00;61331.59;5080636;28;31431;-76
2023/05/27 03:44:49;;;;;;;14.45;3.97;;;;;;;-144.85;100.00;61331.59;5083801;28;30968;-76
2023/05/27 03:47:20;;;;;;;11.75;3.95;;;;;;;-144.85;100.00;61331.59;5073095;28;30720;-76
2023/05/27 03:49:48;;;;;;;9.10;3.95;;;;;;;-144.85;100.00;61331.59;5077842;28;31970;-76
2023/05/27 03:52:15;;;;;;;13.15;3.97;;;;;;;-144.85;100.00;61331.59;5080575;28;31408;-76
2023/05/27 03:54:42;;;;;;;11.45;4.20;;;;;;;-144.85;100.00;61331.59;5077580;28;32457;-76
2023/05/27 03:57:10;;;;;;;9.93;3.95;;;;;;;-144.85;100.00;61331.59;5093476;28;31749;-76
2023/05/27 03:59:37;;;;;;;10.30;3.78;;;;;;;-144.85;100.00;61331.59;5078770;28;30291;-76
2023/05/27 04:02:04;;;;;;;11.27;4.07;;;;;;;-144.85;100.00;61331.59;5087863;28;32008;-76
2023/05/27 04:04:31;;;;;;;10.48;4.15;;;;;;;-144.85;100.00;61331.59;5080086;28;32429;-76
2023/05/27 04:06:59;;;;;;;14.40;3.92;;;;;;;-144.85;100.00;61331.59;5064114;28;30856;-76
2023/05/27 04:09:26;;;;;;;10.73;3.55;;;;;;;-144.85;100.00;61331.59;5080342;28;30349;-77
2023/05/27 04:11:53;;;;;;;12.45;3.72;;;;;;;-144.85;100.00;61331.59;5078149;28;31924;-76
2023/05/27 04:14:22;;;;;;;9.98;3.90;;;;;;;-144.85;100.00;61331.59;5071713;28;31188;-76
2023/05/27 04:16:50;;;;;;;10.38;4.03;;;;;;;-144.85;100.00;61331.59;5095086;28;31757;-76
2023/05/27 04:19:18;;;;;;;11.98;4.00;;;;;;;-144.85;100.00;61331.59;5071715;28;31458;-76
2023/05/27 04:21:48;;;;;;;12.45;4.30;;;;;;;-144.85;100.00;61331.59;5080066;28;32958;-77
2023/05/27 04:24:15;;;;;;;11.98;4.07;;;;;;;-144.85;100.00;61331.59;5079989;28;31327;-76
2023/05/27 04:26:45;;;;;;;11.70;4.03;;;;;;;-144.85;100.00;61331.59;5098399;28;32086;-77
2023/05/27 04:29:15;;;;;;;12.65;4.18;;;;;;;-144.85;100.00;61331.59;5080805;28;30827;-76
2023/05/27 04:31:44;;;;;;;12.00;4.13;;;;;;;-144.85;100.00;61331.59;5098032;28;31597;-76
2023/05/27 04:34:16;;;;;;;11.98;3.95;;;;;;;-144.85;100.00;61331.59;5064686;28;32892;-76
2023/05/27 04:36:49;;;;;;;15.30;4.43;;;;;;;-144.85;100.00;61331.59;5088013;28;31061;-76
2023/05/27 04:39:20;;;;;;;15.07;4.35;;;;;;;-144.85;100.00;61331.59;5059679;28;30893;-76
2023/05/27 04:41:47;;;;;;;13.48;3.90;;;;;;;-144.85;100.00;61331.59;5076832;28;31584;-76
2023/05/27 04:44:20;;;;;;;10.35;4.03;;;;;;;-144.85;100.00;61331.59;5076387;28;31762;-76
2023/05/27 04:46:49;;;;;;;10.02;3.40;;;;;;;-144.85;100.00;61331.59;5089365;28;30747;-76
2023/05/27 04:49:17;;;;;;;11.40;3.83;;;;;;;-144.85;100.00;61331.59;5069933;28;30456;-77
2023/05/27 04:51:44;;;;;;;9.82;3.60;;;;;;;-144.85;100.00;61331.59;5080620;28;31456;-77
2023/05/27 04:54:13;;;;;;;14.02;4.00;;;;;;;-144.85;100.00;61331.59;5077204;28;31295;-77
2023/05/27 04:56:40;;;;;;;16.63;3.85;;;;;;;-144.85;100.00;61331.59;5086069;28;30739;-76
2023/05/27 04:59:16;;;;;;;16.85;4.07;;;;;;;-144.85;100.00;61331.59;5067452;28;30394;-76
2023/05/27 05:02:09;;;;;;;13.30;3.88;;;;;;;-144.85;100.00;61331.59;5050310;28;32692;-76
2023/05/27 05:04:50;;;;;;;14.48;4.15;;;;;;;-144.85;100.00;61331.59;5066652;28;31405;-76
2023/05/27 05:07:19;;;;;;;13.45;4.25;;;;;;;-144.85;100.00;61331.59;5079240;28;32870;-77
2023/05/27 05:09:47;;;;;;;15.05;4.22;;;;;;;-144.85;100.00;61331.59;5062952;28;32210;-77
2023/05/27 05:12:21;;;;;;;13.68;4.60;;;;;;;-144.85;100.00;61331.59;5081465;28;31831;-77
2023/05/27 05:14:53;;;;;;;11.80;3.90;;;;;;;-144.85;100.00;61331.59;5076903;28;31310;-77
2023/05/27 05:17:23;;;;;;;13.38;3.80;;;;;;;-144.85;100.00;61331.59;5063412;28;32024;-77
2023/05/27 05:19:52;;;;;;;12.55;4.13;;;;;;;-144.85;100.00;61331.59;5062841;28;30885;-77
2023/05/27 05:22:22;;;;;;;13.48;4.28;;;;;;;-144.85;100.00;61331.59;5079620;28;31874;-77
2023/05/27 05:24:50;;;;;;;14.02;4.15;;;;;;;-144.85;100.00;61331.59;5065768;28;32174;-77
2023/05/27 05:27:25;;;;;;;10.13;3.85;;;;;;;-144.85;100.00;61331.59;5084642;28;31579;-76
2023/05/27 05:29:52;;;;;;;9.45;4.00;;;;;;;-144.85;100.00;61331.59;5078643;28;30897;-76
2023/05/27 05:32:20;;;;;;;11.95;4.10;;;;;;;-144.85;100.00;61331.59;5078892;28;31546;-77
2023/05/27 05:34:47;;;;;;;15.77;4.38;;;;;;;-144.85;100.00;61331.59;5079601;28;32514;-77
2023/05/27 05:37:15;;;;;;;15.30;4.07;;;;;;;-144.85;100.00;61331.59;5079368;28;31265;-76
2023/05/27 05:39:44;;;;;;;16.90;3.72;;;;;;;-144.85;100.00;61331.59;5055606;28;31479;-77
2023/05/27 05:42:12;;;;;;;11.75;3.83;;;;;;;-144.85;100.00;61331.59;5075094;28;31787;-77
2023/05/27 05:44:39;;;;;;;13.63;4.03;;;;;;;-144.85;100.00;61331.59;5105606;28;31505;-77
2023/05/27 05:47:07;;;;;;;14.35;4.32;;;;;;;-144.85;100.00;61331.59;5058066;28;32841;-77
2023/05/27 05:49:34;;;;;;;14.38;3.97;;;;;;;-144.85;100.00;61331.59;5083306;28;32066;-77
2023/05/27 05:52:02;;;;;;;9.88;3.75;;;;;;;-144.85;100.00;61331.59;5089445;28;31327;-77
2023/05/27 05:54:30;;;;;;;10.35;3.58;;;;;;;-144.85;100.00;61331.59;5078933;28;31100;-77
2023/05/27 05:57:01;;;;;;;11.30;4.13;;;;;;;-144.85;100.00;61331.59;5078550;28;32530;-77
2023/05/27 05:59:29;;;;;;;12.50;3.67;;;;;;;-144.85;100.00;61331.59;5065161;28;30769;-77
2023/05/27 06:01:56;;;;;;;14.20;4.30;;;;;;;-144.85;100.00;61331.59;5074559;28;31419;-77
2023/05/27 06:04:26;;;;;;;15.10;4.20;;;;;;;-144.85;100.00;61331.59;5059648;28;30978;-78
2023/05/27 06:06:53;;;;;;;12.90;4.07;;;;;;;-144.85;100.00;61331.59;5074866;28;31081;-79
2023/05/27 06:09:40;;;;;;;12.35;4.38;;;;;;;-144.85;100.00;61331.59;5061779;28;30638;-78
2023/05/27 06:12:16;;;;;;;12.70;4.20;;;;;;;-144.85;100.00;61331.59;5063557;28;31707;-78
2023/05/27 06:14:46;;;;;;;13.48;3.80;;;;;;;-144.85;100.00;61331.59;5079924;28;31326;-78
2023/05/27 06:17:22;;;;;;;14.60;3.90;;;;;;;-144.85;100.00;61331.59;5067725;28;31675;-78
2023/05/27 06:19:50;;;;;;;14.60;3.88;;;;;;;-144.85;100.00;61331.59;5079375;28;30527;-77
2023/05/27 06:22:17;;;;;;;17.80;4.90;;;;;;;-144.85;100.00;61331.59;5063550;28;31755;-78
2023/05/27 06:25:10;;;;;;;16.23;4.78;;;;;;;-144.85;100.00;61331.59;5052181;28;32673;-78
2023/05/27 06:27:48;;;;;;;15.80;4.40;;;;;;;-144.85;100.00;61331.59;5079683;28;30839;-78
2023/05/27 06:30:15;;;;;;;10.75;3.97;;;;;;;-144.85;100.00;61331.59;5056435;28;32288;-78
2023/05/27 06:32:44;;;;;;;12.77;4.50;;;;;;;-144.85;100.00;61331.59;5078792;28;32896;-78
2023/05/27 06:35:12;;;;;;;16.33;4.20;;;;;;;-144.85;100.00;61331.59;5076481;28;31098;-78
2023/05/27 06:37:39;;;;;;;14.65;4.38;;;;;;;-144.85;100.00;61331.59;5065067;28;31164;-78
2023/05/27 06:40:07;;;;;;;14.40;4.22;;;;;;;-144.85;100.00;61331.59;5070328;28;30603;-78
2023/05/27 06:42:35;;;;;;;19.83;4.20;;;;;;;-144.85;100.00;61331.59;5063042;28;32997;-79
2023/05/27 06:45:08;;;;;;;16.10;4.65;;;;;;;-144.85;100.00;61331.59;5082101;28;31099;-78
2023/05/27 06:47:35;;;;;;;12.68;4.32;;;;;;;-144.85;100.00;61331.59;5069789;28;31012;-78
2023/05/27 06:50:03;;;;;;;14.70;4.85;;;;;;;-144.85;100.00;61331.59;5065454;28;30663;-78
2023/05/27 06:52:30;;;;;;;18.30;4.82;;;;;;;-144.85;100.00;61331.59;5093446;28;31438;-78
2023/05/27 06:55:09;;;;;;;13.90;4.45;;;;;;;-144.85;100.00;61331.59;5076880;28;32975;-78
2023/05/27 06:57:55;;;;;;;15.07;4.47;;;;;;;-144.85;100.00;61331.59;5088501;28;32248;-78
2023/05/27 07:00:39;;;;;;;13.65;4.30;;;;;;;-144.85;100.00;61331.59;5083784;28;30403;-79
2023/05/27 07:03:33;;;;;;;9.70;3.72;;;;;;;-144.85;100.00;61331.59;5098046;28;32404;-78
2023/05/27 07:06:01;;;;;;;15.55;4.50;;;;;;;-144.85;100.00;61331.59;5083091;28;31501;-78
2023/05/27 07:08:34;;;;;;;16.70;5.30;;;;;;;-144.85;100.00;61331.59;5078862;28;32188;-79
2023/05/27 07:11:27;;;;;;;14.00;4.75;;;;;;;-144.85;100.00;61331.59;5088578;28;31124;-78
2023/05/27 07:13:59;;;;;;;15.88;4.68;;;;;;;-144.85;100.00;61331.59;5094004;28;32660;-78
2023/05/27 07:16:30;;;;;;;14.95;5.07;;;;;;;-144.85;100.00;61331.59;5060618;28;30969;-79
2023/05/27 07:18:58;;;;;;;12.50;4.43;;;;;;;-144.85;100.00;61331.59;5063557;28;31052;-78
2023/05/27 07:21:30;;;;;;;16.30;4.55;;;;;;;-144.85;100.00;61331.59;5065576;28;30185;-79
2023/05/27 07:24:03;;;;;;;15.38;4.90;;;;;;;-144.85;100.00;61331.59;5077265;28;32988;-78
2023/05/27 07:26:34;;;;;;;14.65;4.75;;;;;;;-144.85;100.00;61331.59;5075013;28;31420;-80
2023/05/27 07:29:02;;;;;;;15.75;5.05;;;;;;;-144.85;100.00;61331.59;5093066;28;30755;-78
2023/05/27 07:31:41;;;;;;;18.90;4.32;;;;;;;-144.85;100.00;61331.59;5068395;28;32172;-79
2023/05/27 07:34:13;;;;;;;16.75;4.75;;;;;;;-144.85;100.00;61331.59;5098144;28;31639;-79
2023/05/27 07:36:40;;;;;;;14.07;5.38;;;;;;;-144.85;100.00;61331.59;5086045;28;30975;-79
2023/05/27 07:39:07;;;;;;;17.52;5.28;;;;;;;-144.85;100.00;61331.59;5103890;28;31696;-79
2023/05/27 07:41:35;;;;;;;15.88;5.53;;;;;;;-144.85;100.00;61331.59;5086051;28;30655;-79
2023/05/27 07:44:03;;;;;;;14.70;4.70;;;;;;;-144.85;100.00;61331.59;5084576;28;32757;-80
2023/05/27 07:46:31;;;;;;;13.95;4.95;;;;;;;-144.85;100.00;61331.59;5067960;28;32109;-75
2023/05/27 07:48:58;;;;;;;16.52;5.50;;;;;;;-144.85;100.00;61331.59;5091203;28;31237;-76
2023/05/27 07:51:26;;;;;;;16.02;5.35;;;;;;;-144.85;100.00;61331.59;5072274;28;30512;-73
2023/05/27 07:53:54;;;;;;;17.00;5.20;;;;;;;-144.85;100.00;61331.59;5092343;28;31497;-75
2023/05/27 07:56:22;;;;;;;14.93;4.68;;;;;;;-144.85;100.00;61331.59;5082001;28;31051;-74
2023/05/27 07:58:49;;;;;;;18.88;5.38;;;;;;;-144.85;100.00;61331.59;5083443;28;31697;-74
2023/05/27 08:01:18;;;;;;;17.85;5.40;;;;;;;-144.85;100.00;61331.59;5100925;28;32383;-75
2023/05/27 08:03:49;;;;;;;16.90;5.45;;;;;;;-144.85;100.00;61331.59;5094282;28;31323;-75
2023/05/27 08:06:17;;;;;;;15.63;5.78;;;;;;;-144.85;100.00;61331.59;5096498;28;32646;-75
2023/05/27 08:08:58;;;;;;;17.30;5.50;;;;;;;-144.85;100.00;61331.59;5096511;28;32603;-76
2023/05/27 08:11:44;;;;;;;15.20;4.72;;;;;;;-144.85;100.00;61331.59;5089058;28;32983;-76
2023/05/27 08:14:29;;;;;;;;;;;;;;;-144.85;100.00;61331.59;5096734;28;33768;-75
2023/05/27 08:17:11;;;;;;;15.02;4.95;;;;;;;-144.85;100.00;61331.59;5077373;28;32753;-75
2023/05/27 08:19:58;;;;;;;13.75;5.25;;;;;;;-144.85;100.00;61331.59;5096136;28;31708;-75
2023/05/27 08:22:45;;;;;;;16.42;5.32;;;;;;;-144.85;100.00;61331.59;5098684;28;32259;-76
2023/05/27 08:25:19;;;;;;;17.15;5.35;;;;;;;-144.85;100.00;61331.59;5061970;28;33079;-75
2023/05/27 08:28:16;;;;;;;12.88;4.75;;;;;;;-144.85;100.00;61331.59;5093516;28;32082;-75
2023/05/27 08:31:04;;;;;;;13.55;5.18;;;;;;;-144.85;100.00;61331.59;5061163;28;32670;-76
2023/05/27 08:33:37;;;;;;;19.98;5.40;;;;;;;-144.85;100.00;61331.59;5093791;28;30847;-76
2023/05/27 08:36:05;;;;;;;14.35;5.25;;;;;;;-144.85;100.00;61331.59;5076522;28;32597;-76
2023/05/27 08:38:33;;;;;;;15.25;5.25;;;;;;;-144.85;100.00;61331.59;5077982;28;31250;-75
2023/05/27 08:41:14;;;;;;;10.95;4.82;;;;;;;-144.85;100.00;61331.59;5073236;28;32175;-75
2023/05/27 08:43:43;;;;;;;14.43;5.10;;;;;;;-144.85;100.00;61331.59;5070354;28;30775;-76
2023/05/27 08:46:11;;;;;;;9.68;4.93;;;;;;;-144.85;100.00;61331.59;5087422;28;31247;-76
2023/05/27 08:48:40;;;;;;;15.25;4.97;;;;;;;-144.85;100.00;61331.59;5068999;28;32276;-75
2023/05/27 08:51:09;;;;;;;17.40;5.68;;;;;;;-144.85;100.00;61331.59;5066292;28;32111;-75
2023/05/27 08:53:38;;;;;;;15.75;5.45;;;;;;;-144.85;100.00;61331.59;5075045;28;30444;-76
2023/05/27 08:56:08;;;;;;;12.88;4.95;;;;;;;-144.85;100.00;61331.59;5070838;28;31396;-76
2023/05/27 08:58:40;;;;;;;12.00;5.30;;;;;;;-144.85;100.00;61331.59;5077413;28;31082;-76
2023/05/27 09:01:08;;;;;;;14.52;4.85;;;;;;;-144.85;100.00;61331.59;5095213;28;31940;-75
2023/05/27 09:03:35;;;;;;;16.25;5.50;;;;;;;-144.85;100.00;61331.59;5061853;28;30846;-75
2023/05/27 09:06:04;;;;;;;13.20;5.20;;;;;;;-144.85;100.00;61331.59;5096372;28;32391;-78
2023/05/27 09:08:31;;;;;;;11.23;4.35;;;;;;;-144.85;100.00;61331.59;5081608;28;33194;-77
2023/05/27 09:11:21;;;;;;;15.05;4.97;;;;;;;-144.85;100.00;61331.59;5096173;28;32314;-78
2023/05/27 09:13:48;;;;;;;11.73;5.10;;;;;;;-144.85;100.00;61331.59;5095515;28;32468;-78
2023/05/27 09:16:20;;;;;;;15.95;5.32;;;;;;;-144.85;100.00;61331.59;5063043;28;32498;-77
2023/05/27 09:18:48;;;;;;;16.00;5.18;;;;;;;-144.85;100.00;61331.59;5069294;28;31906;-77
2023/05/27 09:21:16;;;;;;;17.95;5.07;;;;;;;-144.85;100.00;61331.59;5076917;28;30982;-76
2023/05/27 09:23:43;;;;;;;18.30;4.95;;;;;;;-144.85;100.00;61331.59;5078954;28;32340;-77
2023/05/27 09:26:11;;;;;;;18.75;5.00;;;;;;;-144.85;100.00;61331.59;5095153;28;32417;-77
2023/05/27 09:28:40;;;;;;;16.67;4.55;;;;;;;-144.85;100.00;61331.59;5096722;28;32310;-76
2023/05/27 09:31:08;;;;;;;17.13;5.32;;;;;;;-144.85;100.00;61331.59;5062508;28;33362;-77
2023/05/27 09:33:39;;;;;;;15.10;4.70;;;;;;;-144.85;100.00;61331.59;5100062;28;31705;-77
2023/05/27 09:36:08;;;;;;;14.30;4.85;;;;;;;-144.85;100.00;61331.59;5098201;28;32290;-77
2023/05/27 09:38:36;;;;;;;14.93;5.03;;;;;;;-144.85;100.00;61331.59;5049334;28;31107;-77
2023/05/27 09:41:03;;;;;;;13.70;4.65;;;;;;;-144.85;100.00;61331.59;5095004;28;31760;-77
2023/05/27 09:43:31;;;;;;;11.07;4.25;;;;;;;-144.85;100.00;61331.59;5100543;28;31540;-78
2023/05/27 09:46:03;;;;;;;10.30;4.30;;;;;;;-144.85;100.00;61331.59;5109257;28;32317;-77
2023/05/27 09:48:31;;;;;;;15.85;4.82;;;;;;;-144.85;100.00;61331.59;5097588;28;32010;-76
2023/05/27 09:50:59;;;;;;;13.32;4.70;;;;;;;-144.85;100.00;61331.59;5067729;28;32256;-77
2023/05/27 09:53:27;;;;;;;13.40;4.68;;;;;;;-144.85;100.00;61331.59;5093933;28;31492;-77
2023/05/27 09:55:56;;;;;;;14.93;4.05;;;;;;;-144.85;100.00;61331.59;5096796;28;33310;-77
2023/05/27 09:58:24;;;;;;;10.48;4.50;;;;;;;-144.85;100.00;61331.59;5082476;28;33072;-77
2023/05/27 10:00:53;;;;;;;15.90;5.10;;;;;;;-144.85;100.00;61331.59;5084437;28;32021;-77
2023/05/27 10:03:21;;;;;;;12.10;4.18;;;;;;;-144.85;100.00;61331.59;5093930;28;31578;-77
2023/05/27 10:05:50;;;;;;;16.50;5.07;;;;;;;-144.85;100.00;61331.59;5096266;28;33183;-76
2023/05/27 10:08:19;;;;;;;13.02;4.03;;;;;;;-144.85;100.00;61331.59;5106012;28;32752;-77
2023/05/27 10:10:49;;;;;;;17.90;5.38;;;;;;;-144.85;100.00;61331.59;5066859;28;30880;-76
2023/05/27 10:13:20;;;;;;;18.30;4.47;;;;;;;-144.85;100.00;61331.59;5097458;28;31581;-76
2023/05/27 10:15:51;;;;;;;14.45;3.97;;;;;;;-144.85;100.00;61331.59;5096764;28;32183;-77
2023/05/27 10:18:23;;;;;;;11.45;3.58;;;;;;;-144.85;100.00;61331.59;5097211;28;32981;-77
2023/05/27 10:20:51;;;;;;;16.00;4.18;;;;;;;-144.85;100.00;61331.59;5097236;28;32784;-76
2023/05/27 10:23:25;;;;;;;12.98;3.80;;;;;;;-144.85;100.00;61331.59;5076212;28;31174;-77
2023/05/27 10:26:00;;;;;;;11.88;3.85;;;;;;;-144.85;100.00;61331.59;5094129;28;32471;-79
2023/05/27 10:28:32;;;;;;;12.63;3.97;;;;;;;-144.85;100.00;61331.59;5078515;28;31651;-76
2023/05/27 10:31:17;;;;;;;15.18;3.80;;;;;;;-144.85;100.00;61331.59;5081852;28;31557;-77
2023/05/27 10:33:50;;;;;;;18.20;4.85;;;;;;;-144.85;100.00;61331.59;5092054;28;32105;-77
2023/05/27 10:36:31;;;;;;;10.40;3.65;;;;;;;-144.85;100.00;61331.59;5079047;28;32517;-77
2023/05/27 10:39:04;;;;;;;8.25;3.55;;;;;;;-144.85;100.00;61331.59;5094950;28;33167;-77
2023/05/27 10:41:43;;;;;;;15.07;3.90;;;;;;;-144.85;100.00;61331.59;5077177;28;32903;-77
2023/05/27 10:44:10;;;;;;;9.63;3.70;;;;;;;-144.85;100.00;61331.59;5069359;28;32261;-76
2023/05/27 10:46:40;;;;;;;13.57;3.83;;;;;;;-144.85;100.00;61331.59;5092621;28;32264;-77
2023/05/27 10:49:16;;;;;;;9.93;3.78;;;;;;;-144.85;100.00;61331.59;5064029;28;30775;-76
2023/05/27 10:51:44;;;;;;;11.07;3.70;;;;;;;-144.85;100.00;61331.59;5088786;28;32221;-77
2023/05/27 10:54:12;;;;;;;11.27;3.90;;;;;;;-144.85;100.00;61331.59;5094570;28;32305;-77
2023/05/27 10:56:50;;;;;;;15.48;4.00;;;;;;;-144.85;100.00;61331.59;5089275;28;33225;-77
2023/05/27 10:59:22;;;;;;;11.80;3.70;;;;;;;-144.85;100.00;61331.59;5075956;28;32267;-77
2023/05/27 11:01:53;;;;;;;11.93;4.13;;;;;;;-144.85;100.00;61331.59;5088341;28;31660;-77
2023/05/27 11:04:22;;;;;;;11.52;3.40;;;;;;;-144.85;100.00;61331.59;5092484;28;31995;-77
2023/05/27 11:06:58;;;;;;;11.32;3.40;;;;;;;-144.85;100.00;61331.59;5092286;28;32454;-77
2023/05/27 11:09:29;;;;;;;11.20;3.67;;;;;;;-144.85;100.00;61331.59;5097325;28;32025;-78
2023/05/27 11:12:05;;;;;;;16.25;4.10;;;;;;;-144.85;100.00;61331.59;5082996;28;31094;-78
2023/05/27 11:14:33;;;;;;;11.15;3.67;;;;;;;-144.85;100.00;61331.59;5093810;28;31748;-77
2023/05/27 11:17:00;;;;;;;9.30;3.35;;;;;;;-144.85;100.00;61331.59;5089708;28;32300;-77